Terminal Aerodrome Forecast
Issued by NWS

Current Version | Previous Version | Graphics & Text | Print | Product List | Glossary On
Versions: 1 2 3 4 5 6 7 8 9 10 11 12 13 14 15 16 17 18 19 20 21 22 23 24 25
883
FTUS41 KRLX 271740
TAFCKB
TAF
KCKB 271740Z 2718/2818 25004KT P6SM VCSH OVC018
     FM271900 VRB03KT P6SM VCTS BKN045CB
     FM272300 00000KT P6SM BKN035
     FM280400 VRB03KT P6SM BKN021
     FM280500 VRB03KT P6SM BKN014
     FM281100 VRB03KT P6SM BKN009
     FM281600 18006KT P6SM BKN023
     FM281700 19007KT 3SM SHRA VCTS BKN030CB=

USA.gov is the U.S. government's official web portal to all federal, state and local government web resources and services.